createdAt,value
2019-02-28T00:01:00.968Z,40.00
2019-02-28T00:03:30.132Z,66.60
2019-02-28T00:05:58.105Z,48.20
2019-02-28T00:08:27.261Z,38.00
2019-02-28T00:10:55.703Z,38.70
2019-02-28T00:13:23.339Z,39.20
2019-02-28T00:15:51.332Z,39.30
2019-02-28T00:18:20.762Z,40.20
2019-02-28T00:20:49.834Z,40.70
2019-02-28T00:23:19.203Z,41.30
2019-02-28T00:25:47.720Z,54.10
2019-02-28T00:28:15.815Z,54.40
2019-02-28T00:30:44.219Z,56.40
2019-02-28T00:33:12.361Z,57.10
2019-02-28T00:38:10.040Z,58.60
2019-02-28T00:43:07.831Z,47.60
2019-02-28T00:48:07.082Z,60.60
2019-02-28T00:50:35.316Z,58.90
2019-02-28T00:53:03.065Z,59.20
2019-02-28T00:55:31.644Z,63.30
2019-02-28T00:57:59.837Z,56.30
2019-02-28T01:02:58.044Z,61.80
2019-02-28T01:05:26.372Z,51.70
2019-02-28T01:07:54.456Z,62.20
2019-02-28T01:12:54.394Z,58.70
2019-02-28T01:15:20.634Z,43.40
2019-02-28T01:17:50.666Z,43.50
2019-02-28T01:20:19.093Z,43.40
2019-02-28T01:25:15.916Z,43.30
2019-02-28T01:27:43.656Z,43.90
2019-02-28T01:30:12.076Z,44.20
2019-02-28T01:32:40.117Z,44.40
2019-02-28T01:35:08.841Z,44.30
2019-02-28T01:40:06.939Z,44.10
2019-02-28T01:42:35.897Z,44.40
2019-02-28T01:45:07.070Z,43.80
2019-02-28T01:47:35.538Z,44.00
2019-02-28T01:50:04.429Z,43.70
2019-02-28T01:52:32.959Z,44.00
2019-02-28T01:55:00.721Z,44.50
2019-02-28T01:57:31.259Z,44.60
2019-02-28T02:02:27.385Z,44.20
2019-02-28T02:04:54.735Z,44.50
2019-02-28T02:10:17.653Z,43.60
2019-02-28T02:12:45.503Z,43.80
2019-02-28T02:15:16.847Z,43.80
2019-02-28T02:17:43.951Z,44.60
2019-02-28T02:20:13.412Z,44.70
2019-02-28T02:22:44.474Z,44.80
2019-02-28T02:25:13.361Z,45.70
2019-02-28T02:27:43.074Z,46.20
2019-02-28T02:30:16.645Z,46.10
2019-02-28T02:32:44.900Z,46.60
2019-02-28T02:35:12.794Z,47.50
2019-02-28T02:37:41.767Z,47.80
2019-02-28T02:40:09.752Z,47.80
2019-02-28T02:42:37.090Z,47.80
2019-02-28T02:45:06.446Z,48.00
2019-02-28T02:47:34.691Z,47.30
2019-02-28T02:50:03.736Z,47.10
2019-02-28T02:52:32.062Z,46.50
2019-02-28T02:55:00.337Z,45.90
2019-02-28T02:57:29.510Z,46.50
2019-02-28T03:02:34.353Z,46.10
2019-02-28T03:05:02.650Z,46.30
2019-02-28T03:07:30.738Z,47.00
2019-02-28T03:09:58.925Z,47.20
2019-02-28T03:12:31.060Z,46.40
2019-02-28T03:14:57.028Z,46.10
2019-02-28T03:17:25.443Z,45.90
2019-02-28T03:19:54.281Z,45.80
2019-02-28T03:22:28.353Z,45.60
2019-02-28T03:24:52.420Z,45.60
2019-02-28T03:27:20.213Z,45.90
2019-02-28T03:32:15.885Z,45.40
2019-02-28T03:34:55.558Z,45.40
2019-02-28T03:37:14.884Z,45.70
2019-02-28T03:39:46.753Z,45.70
2019-02-28T03:42:15.237Z,45.90
2019-02-28T03:44:43.733Z,45.90
2019-02-28T03:52:07.016Z,47.00
2019-02-28T03:57:02.524Z,47.50
2019-02-28T03:59:30.536Z,48.30
2019-02-28T04:01:59.089Z,48.10
2019-02-28T04:04:26.885Z,67.70
2019-02-28T04:24:16.873Z,72.60
2019-02-28T04:26:45.262Z,76.70
2019-02-28T04:39:09.001Z,82.20
2019-02-28T04:51:28.853Z,82.30
2019-02-28T04:53:56.593Z,81.40
2019-02-28T04:56:24.773Z,80.80
2019-02-28T04:58:56.531Z,79.60
2019-02-28T05:01:25.101Z,84.70
2019-02-28T05:06:21.904Z,79.70
2019-02-28T05:08:50.152Z,78.20
2019-02-28T05:11:18.101Z,77.90
2019-02-28T05:16:16.395Z,75.60
2019-02-28T05:18:44.653Z,79.90
2019-02-28T05:28:40.189Z,69.80
2019-02-28T05:31:06.938Z,68.50
2019-02-28T05:36:04.300Z,77.80
2019-02-28T05:38:32.298Z,66.50
2019-02-28T05:45:59.458Z,79.80
2019-02-28T05:48:28.114Z,82.70
2019-02-28T05:50:56.527Z,81.30
2019-02-28T05:58:20.903Z,81.60
2019-02-28T06:03:16.913Z,81.10
2019-02-28T06:08:16.150Z,79.50
2019-02-28T06:20:38.390Z,78.50
2019-02-28T06:23:09.281Z,79.80
2019-02-28T06:25:38.272Z,82.70
2019-02-28T06:28:07.022Z,81.00
2019-02-28T06:30:35.619Z,81.70
2019-02-28T06:33:04.112Z,66.40
2019-02-28T06:45:27.018Z,79.30
2019-02-28T06:50:28.207Z,83.20
2019-02-28T06:52:59.354Z,67.00
2019-02-28T06:57:58.873Z,90.00
2019-02-28T07:15:24.848Z,82.50
2019-02-28T07:17:52.857Z,55.90
2019-02-28T07:20:29.872Z,77.50
2019-02-28T07:25:26.265Z,81.60
2019-02-28T07:27:56.328Z,84.20
2019-02-28T07:30:26.430Z,77.00
2019-02-28T07:32:59.192Z,78.40
2019-02-28T07:42:53.533Z,82.80
2019-02-28T07:45:21.657Z,82.20
2019-02-28T07:47:52.781Z,57.80
2019-02-28T07:50:21.325Z,79.20
2019-02-28T07:57:55.431Z,73.30
2019-02-28T08:02:49.742Z,73.20
2019-02-28T08:10:18.152Z,67.10
2019-02-28T08:17:51.824Z,71.60
2019-02-28T08:20:20.210Z,70.10
2019-02-28T08:22:47.874Z,65.30
2019-02-28T08:25:16.428Z,69.10
2019-02-28T08:27:44.548Z,49.90
2019-02-28T08:30:16.303Z,49.00
2019-02-28T08:35:15.653Z,45.40
2019-02-28T08:37:45.272Z,46.50
2019-02-28T08:40:15.797Z,45.20
2019-02-28T08:42:44.834Z,49.10
2019-02-28T08:47:42.540Z,42.80
2019-02-28T08:50:12.910Z,43.90
2019-02-28T08:52:42.430Z,41.20
2019-02-28T08:55:12.097Z,40.40
2019-02-28T08:57:41.913Z,41.70
2019-02-28T09:00:14.468Z,43.80
2019-02-28T09:02:42.250Z,42.20
2019-02-28T09:05:11.843Z,44.10
2019-02-28T09:07:40.837Z,40.70
2019-02-28T09:10:12.788Z,40.50
2019-02-28T09:12:40.593Z,41.90
2019-02-28T09:15:10.992Z,41.40
2019-02-28T09:17:39.027Z,41.80
2019-02-28T09:20:07.476Z,41.40
2019-02-28T09:22:37.350Z,41.00
2019-02-28T09:25:06.491Z,41.40
2019-02-28T09:27:35.362Z,41.00
2019-02-28T09:30:16.413Z,40.30
2019-02-28T09:32:45.208Z,40.20
2019-02-28T09:35:14.603Z,39.30
2019-02-28T09:37:42.859Z,37.90
2019-02-28T09:40:12.061Z,37.50
2019-02-28T09:42:40.330Z,36.00
2019-02-28T09:45:13.093Z,36.70
2019-02-28T09:47:41.285Z,35.40
2019-02-28T09:50:12.127Z,34.10
2019-02-28T09:52:41.801Z,32.30
2019-02-28T09:55:10.339Z,32.70
2019-02-28T09:57:38.826Z,31.20
2019-02-28T10:00:11.618Z,30.40
2019-02-28T10:02:40.445Z,30.10
2019-02-28T10:05:08.393Z,30.10
2019-02-28T10:07:36.830Z,30.00
2019-02-28T10:10:06.861Z,30.10
2019-02-28T10:12:39.400Z,31.30
2019-02-28T10:15:09.223Z,32.40
2019-02-28T10:17:37.829Z,32.50
2019-02-28T10:20:09.727Z,33.10
2019-02-28T10:22:47.301Z,34.90
2019-02-28T10:25:15.666Z,34.80
2019-02-28T10:27:44.444Z,33.10
2019-02-28T10:30:17.334Z,33.40
2019-02-28T10:32:45.124Z,31.20
2019-02-28T10:35:13.750Z,29.70
2019-02-28T10:37:41.752Z,29.80
2019-02-28T10:40:14.257Z,30.90
2019-02-28T10:42:42.702Z,33.90
2019-02-28T10:45:10.832Z,36.10
2019-02-28T10:48:02.864Z,38.40
2019-02-28T10:50:32.196Z,39.00
2019-02-28T10:53:04.108Z,40.10
2019-02-28T10:55:32.169Z,40.50
2019-02-28T10:58:00.040Z,41.60
2019-02-28T11:00:32.873Z,42.00
2019-02-28T11:03:01.710Z,42.60
2019-02-28T11:05:30.524Z,43.10
2019-02-28T11:08:00.834Z,43.10
2019-02-28T11:12:59.748Z,42.40
2019-02-28T11:15:28.187Z,42.30
2019-02-28T11:17:56.373Z,42.70
2019-02-28T11:20:26.245Z,43.10
2019-02-28T11:22:54.855Z,43.00
2019-02-28T11:25:24.671Z,42.40
2019-02-28T11:27:54.554Z,42.60
2019-02-28T11:30:23.095Z,42.20
2019-02-28T11:32:51.384Z,41.90
2019-02-28T11:35:23.246Z,41.40
2019-02-28T11:37:51.682Z,40.60
2019-02-28T11:40:20.392Z,41.00
2019-02-28T11:42:48.447Z,39.00
2019-02-28T11:45:18.585Z,38.60
2019-02-28T11:47:48.839Z,38.30
2019-02-28T11:50:17.177Z,37.90
2019-02-28T11:52:44.828Z,35.50
2019-02-28T11:55:12.855Z,27.90
2019-02-28T11:57:41.252Z,28.10
2019-02-28T12:00:18.676Z,25.30
2019-02-28T12:02:53.077Z,22.70
2019-02-28T12:07:46.524Z,22.10
2019-02-28T12:10:15.442Z,25.40
2019-02-28T12:12:44.595Z,50.60
2019-02-28T12:17:42.689Z,25.20
2019-02-28T12:20:12.243Z,20.70
2019-02-28T12:22:44.008Z,20.10
2019-02-28T12:25:13.063Z,30.30
2019-02-28T12:27:41.567Z,45.00
2019-02-28T12:32:43.361Z,38.90
2019-02-28T12:40:11.144Z,47.80
2019-02-28T12:50:07.408Z,51.80
2019-02-28T12:55:04.880Z,52.90
2019-02-28T12:57:35.434Z,37.40
2019-02-28T13:10:04.031Z,38.30
2019-02-28T13:12:36.565Z,34.50
2019-02-28T13:15:06.162Z,38.80
2019-02-28T13:17:34.704Z,33.90
2019-02-28T13:20:03.722Z,38.50
2019-02-28T13:22:31.901Z,35.00
2019-02-28T13:27:28.918Z,41.50
2019-02-28T13:29:57.597Z,33.40
2019-02-28T13:32:25.749Z,32.70
2019-02-28T13:37:22.370Z,34.60
2019-02-28T13:39:50.872Z,32.20
2019-02-28T13:42:19.119Z,35.60
2019-02-28T13:47:17.010Z,30.20
2019-02-28T13:49:46.620Z,39.50
2019-02-28T13:52:20.546Z,50.70
2019-02-28T13:57:13.807Z,47.50
2019-02-28T13:59:41.867Z,30.40
2019-02-28T14:02:13.679Z,31.80
2019-02-28T14:04:43.018Z,46.50
2019-02-28T14:07:11.075Z,51.60
2019-02-28T14:12:07.552Z,34.10
2019-02-28T14:17:03.487Z,34.10
2019-02-28T14:19:34.003Z,33.70
2019-02-28T14:27:00.044Z,35.40
2019-02-28T14:29:27.907Z,32.70
2019-02-28T14:31:55.724Z,35.30
2019-02-28T14:34:26.058Z,31.70
2019-02-28T14:36:55.126Z,31.10
2019-02-28T14:39:24.009Z,31.70
2019-02-28T14:41:52.799Z,32.60
2019-02-28T14:44:21.072Z,32.50
2019-02-28T14:46:49.800Z,33.40
2019-02-28T14:49:19.965Z,33.50
2019-02-28T14:51:48.068Z,33.90
2019-02-28T14:54:16.896Z,33.90
2019-02-28T14:56:44.889Z,34.60
2019-02-28T14:59:13.514Z,34.90
2019-02-28T15:01:45.720Z,35.30
2019-02-28T15:04:14.583Z,35.60
2019-02-28T15:06:41.982Z,36.30
2019-02-28T15:09:15.483Z,37.10
2019-02-28T15:11:47.101Z,37.20
2019-02-28T15:14:13.760Z,38.30
2019-02-28T15:16:42.753Z,39.50
2019-02-28T15:21:42.260Z,46.00
2019-02-28T15:24:09.764Z,51.40
2019-02-28T15:36:31.301Z,55.60
2019-02-28T15:41:27.056Z,42.10
2019-02-28T15:43:55.872Z,43.20
2019-02-28T15:48:52.681Z,42.70
2019-02-28T15:53:52.369Z,42.70
2019-02-28T15:56:20.881Z,48.90
2019-02-28T16:03:48.448Z,55.90
2019-02-28T16:06:19.730Z,55.70
2019-02-28T16:11:16.041Z,57.90
2019-02-28T16:16:11.735Z,60.20
2019-02-28T16:23:38.141Z,72.60
2019-02-28T16:36:03.301Z,57.60
2019-02-28T16:53:26.994Z,57.00
2019-02-28T16:55:55.656Z,59.50
2019-02-28T17:16:37.079Z,63.50
2019-02-28T17:19:13.047Z,57.40
2019-02-28T17:21:42.200Z,63.50
2019-02-28T17:26:48.710Z,62.60
2019-02-28T17:29:53.770Z,64.50
2019-02-28T17:32:21.500Z,62.80
2019-02-28T17:37:20.428Z,55.70
2019-02-28T17:39:51.918Z,51.80
2019-02-28T17:42:20.115Z,50.90
2019-02-28T17:45:10.583Z,51.20
2019-02-28T17:50:55.283Z,51.80
2019-02-28T17:54:13.968Z,51.80
2019-02-28T17:57:10.010Z,51.60
2019-02-28T18:00:21.586Z,51.80
2019-02-28T18:03:27.342Z,51.30
2019-02-28T18:06:38.618Z,51.30
2019-02-28T18:09:32.184Z,51.20
2019-02-28T18:15:23.716Z,50.50
2019-02-28T18:18:18.197Z,50.90
2019-02-28T18:21:23.515Z,54.80
2019-02-28T18:24:21.864Z,51.00
2019-02-28T18:30:13.452Z,50.90
2019-02-28T18:32:45.632Z,53.60
2019-02-28T18:35:16.300Z,51.70
2019-02-28T18:37:45.682Z,51.70
2019-02-28T18:40:17.708Z,52.30
2019-02-28T18:42:47.328Z,52.70
2019-02-28T18:45:18.870Z,52.90
2019-02-28T18:47:49.303Z,53.10
2019-02-28T18:50:19.121Z,53.10
2019-02-28T18:52:51.420Z,53.60
2019-02-28T18:55:19.951Z,53.90
2019-02-28T18:57:51.254Z,54.20
2019-02-28T19:00:20.439Z,54.40
2019-02-28T19:02:49.498Z,54.50
2019-02-28T19:05:18.418Z,54.70
2019-02-28T19:07:48.658Z,55.10
2019-02-28T19:10:18.699Z,55.20
2019-02-28T19:12:48.959Z,55.20
2019-02-28T19:17:48.966Z,55.90
2019-02-28T19:20:19.356Z,56.20
2019-02-28T19:22:48.658Z,56.20
2019-02-28T19:25:17.392Z,57.00
2019-02-28T19:27:46.903Z,58.10
2019-02-28T19:30:15.459Z,57.40
2019-02-28T19:32:44.026Z,57.50
2019-02-28T19:35:13.070Z,57.40
2019-02-28T19:37:42.482Z,57.60
2019-02-28T19:40:13.746Z,57.50
2019-02-28T19:42:41.537Z,57.20
2019-02-28T19:45:10.832Z,57.30
2019-02-28T19:47:39.424Z,57.40
2019-02-28T19:55:05.148Z,59.30
2019-02-28T20:00:02.280Z,60.90
2019-02-28T20:02:30.436Z,61.00
2019-02-28T20:04:58.921Z,60.90
2019-02-28T20:07:29.980Z,62.00
2019-02-28T20:09:59.690Z,62.80
2019-02-28T20:12:28.181Z,63.40
2019-02-28T20:14:57.076Z,63.60
2019-02-28T20:17:26.660Z,63.90
2019-02-28T20:19:55.695Z,63.80
2019-02-28T20:22:24.169Z,64.10
2019-02-28T20:24:59.695Z,64.60
2019-02-28T20:27:28.385Z,65.00
2019-02-28T20:32:27.774Z,65.60
2019-02-28T20:34:56.370Z,66.20
2019-02-28T20:37:24.568Z,66.50
2019-02-28T20:39:53.471Z,66.70
2019-02-28T20:42:21.511Z,66.80
2019-02-28T20:44:50.407Z,67.70
2019-02-28T20:47:19.457Z,66.90
2019-02-28T20:49:47.944Z,67.30
2019-02-28T20:52:18.235Z,67.40
2019-02-28T20:54:47.164Z,67.50
2019-02-28T20:57:15.289Z,67.80
2019-02-28T20:59:45.095Z,67.60
2019-02-28T21:04:42.234Z,67.50
2019-02-28T21:07:13.061Z,67.70
2019-02-28T21:12:34.520Z,67.90
2019-02-28T21:15:09.179Z,67.50
2019-02-28T21:17:37.741Z,67.80
2019-02-28T21:20:08.606Z,67.60
2019-02-28T21:22:37.667Z,67.40
2019-02-28T21:27:35.014Z,68.20
2019-02-28T21:30:06.962Z,67.80
2019-02-28T21:32:35.257Z,67.70
2019-02-28T21:35:03.882Z,67.80
2019-02-28T21:37:31.744Z,68.00
2019-02-28T21:40:00.977Z,68.20
2019-02-28T21:42:29.952Z,68.50
2019-02-28T21:44:59.165Z,68.50
2019-02-28T21:47:27.714Z,68.30
2019-02-28T21:49:56.335Z,67.00
2019-02-28T21:52:24.189Z,67.50
2019-02-28T21:54:52.854Z,67.00
2019-02-28T21:57:24.310Z,67.60
2019-02-28T21:59:53.143Z,68.20
2019-02-28T22:02:22.011Z,68.30
2019-02-28T22:04:50.595Z,67.60
2019-02-28T22:07:19.273Z,67.30
2019-02-28T22:09:48.962Z,67.30
2019-02-28T22:12:18.579Z,67.10
2019-02-28T22:14:46.906Z,68.90
2019-02-28T22:17:15.547Z,68.80
2019-02-28T22:19:43.924Z,69.90
2019-02-28T22:22:12.174Z,69.50
2019-02-28T22:24:40.006Z,70.20
2019-02-28T22:27:17.066Z,69.50
2019-02-28T22:29:45.508Z,69.80
2019-02-28T22:32:33.648Z,69.90
2019-02-28T22:35:06.771Z,70.10
2019-02-28T22:37:35.172Z,70.60
2019-02-28T22:40:03.700Z,70.10
2019-02-28T22:42:32.682Z,69.70
2019-02-28T22:45:00.787Z,70.30
2019-02-28T22:47:29.083Z,70.40
2019-02-28T22:49:57.546Z,70.80
2019-02-28T22:52:26.862Z,70.80
2019-02-28T22:54:55.373Z,71.40
2019-02-28T22:57:23.166Z,71.30
2019-02-28T22:59:51.256Z,71.80
2019-02-28T23:02:20.906Z,71.90
2019-02-28T23:04:48.550Z,72.30
2019-02-28T23:07:15.888Z,73.00
2019-02-28T23:09:43.520Z,73.60
2019-02-28T23:12:31.926Z,74.10
2019-02-28T23:15:00.330Z,74.70
2019-02-28T23:17:28.160Z,76.10
2019-02-28T23:19:57.105Z,77.10
2019-02-28T23:22:26.141Z,77.70
2019-02-28T23:27:23.090Z,79.10
2019-02-28T23:30:02.560Z,79.80
2019-02-28T23:32:37.006Z,80.40
2019-02-28T23:35:07.905Z,79.40
2019-02-28T23:37:35.665Z,80.30
2019-02-28T23:40:03.838Z,81.20
2019-02-28T23:49:59.810Z,80.70
2019-02-28T23:52:28.063Z,81.50
2019-02-28T23:54:56.280Z,80.30
2019-02-28T23:57:26.476Z,80.60
2019-02-28T23:59:54.288Z,81.60
